createdAt,value
2022-09-12T00:00:05.583Z,100.00
2022-09-12T00:02:33.386Z,100.00
2022-09-12T00:05:01.032Z,100.00
2022-09-12T00:07:28.673Z,100.00
2022-09-12T00:09:56.311Z,100.00
2022-09-12T00:12:23.973Z,100.00
2022-09-12T00:14:51.522Z,100.00
2022-09-12T00:17:20.537Z,100.00
2022-09-12T00:19:48.073Z,100.00
2022-09-12T00:22:15.603Z,100.00
2022-09-12T00:24:43.194Z,100.00
2022-09-12T00:27:10.783Z,100.00
2022-09-12T00:29:38.349Z,100.00
2022-09-12T00:32:05.912Z,100.00
2022-09-12T00:34:34.817Z,100.00
2022-09-12T00:37:02.385Z,100.00
2022-09-12T00:39:29.932Z,100.00
2022-09-12T00:41:57.542Z,100.00
2022-09-12T00:44:48.665Z,100.00
2022-09-12T00:47:20.479Z,100.00
2022-09-12T00:49:52.567Z,100.00
2022-09-12T00:52:25.362Z,100.00
2022-09-12T00:54:56.922Z,100.00
2022-09-12T00:57:28.787Z,100.00
2022-09-12T00:59:58.966Z,100.00
2022-09-12T01:02:26.927Z,100.00
2022-09-12T01:04:55.944Z,100.00
2022-09-12T01:07:23.944Z,100.00
2022-09-12T01:09:51.586Z,100.00
2022-09-12T01:12:19.178Z,100.00
2022-09-12T01:14:46.719Z,100.00
2022-09-12T01:17:15.204Z,100.00
2022-09-12T01:20:10.011Z,100.00
2022-09-12T01:23:10.762Z,100.00
2022-09-12T01:25:51.954Z,100.00
2022-09-12T01:28:32.494Z,100.00
2022-09-12T01:31:03.354Z,100.00
2022-09-12T01:33:39.636Z,100.00
2022-09-12T01:36:25.821Z,100.00
2022-09-12T01:38:59.221Z,100.00
2022-09-12T01:41:29.617Z,100.00
2022-09-12T01:44:03.137Z,100.00
2022-09-12T01:46:34.669Z,100.00
2022-09-12T01:49:03.864Z,100.00
2022-09-12T01:51:35.783Z,100.00
2022-09-12T01:54:08.074Z,100.00
2022-09-12T01:56:37.030Z,100.00
2022-09-12T01:59:07.548Z,100.00
2022-09-12T02:01:39.946Z,100.00
2022-09-12T02:04:11.495Z,100.00
2022-09-12T02:06:41.987Z,100.00
2022-09-12T02:09:12.074Z,100.00
2022-09-12T02:11:42.989Z,100.00
2022-09-12T02:14:12.948Z,100.00
2022-09-12T02:16:44.783Z,100.00
2022-09-12T02:19:15.660Z,100.00
2022-09-12T02:21:47.256Z,100.00
2022-09-12T02:24:15.882Z,100.00
2022-09-12T02:26:49.181Z,100.00
2022-09-12T02:29:16.876Z,100.00
2022-09-12T02:31:48.284Z,100.00
2022-09-12T02:34:27.176Z,100.00
2022-09-12T02:37:03.417Z,100.00
2022-09-12T02:39:31.018Z,100.00
2022-09-12T02:42:00.956Z,100.00
2022-09-12T02:44:29.710Z,100.00
2022-09-12T02:47:03.820Z,100.00
2022-09-12T02:49:31.402Z,100.00
2022-09-12T02:51:59.204Z,100.00
2022-09-12T02:54:26.854Z,100.00
2022-09-12T02:56:54.646Z,100.00
2022-09-12T02:59:24.152Z,100.00
2022-09-12T03:02:06.978Z,100.00
2022-09-12T03:04:48.200Z,100.00
2022-09-12T03:07:19.773Z,100.00
2022-09-12T03:09:51.062Z,100.00
2022-09-12T03:12:35.863Z,100.00
2022-09-12T03:15:16.392Z,100.00
2022-09-12T03:17:57.559Z,100.00
2022-09-12T03:20:34.276Z,100.00
2022-09-12T03:23:05.079Z,100.00
2022-09-12T03:25:36.890Z,100.00
2022-09-12T03:28:08.094Z,100.00
2022-09-12T03:30:38.984Z,100.00
2022-09-12T03:33:07.915Z,100.00
2022-09-12T03:35:35.447Z,100.00
2022-09-12T03:38:02.986Z,100.00
2022-09-12T03:40:30.515Z,100.00
2022-09-12T03:42:58.084Z,100.00
2022-09-12T03:45:25.701Z,100.00
2022-09-12T03:47:53.475Z,100.00
2022-09-12T03:50:22.369Z,100.00
2022-09-12T03:52:49.989Z,100.00
2022-09-12T03:55:17.791Z,100.00
2022-09-12T03:57:45.762Z,100.00
2022-09-12T04:00:19.055Z,100.00
2022-09-12T04:02:47.375Z,100.00
2022-09-12T04:05:15.023Z,100.00
2022-09-12T04:07:44.039Z,100.00
2022-09-12T04:10:11.750Z,100.00
2022-09-12T04:12:39.687Z,100.00
2022-09-12T04:15:08.654Z,100.00
2022-09-12T04:17:37.012Z,100.00
2022-09-12T04:20:05.124Z,100.00
2022-09-12T04:22:33.269Z,100.00
2022-09-12T04:25:02.205Z,100.00
2022-09-12T04:27:29.770Z,100.00
2022-09-12T04:29:57.425Z,100.00
2022-09-12T04:32:25.023Z,100.00
2022-09-12T04:34:53.373Z,100.00
2022-09-12T04:37:21.202Z,100.00
2022-09-12T04:39:49.670Z,100.00
2022-09-12T04:42:18.705Z,100.00
2022-09-12T04:44:46.237Z,100.00
2022-09-12T04:47:13.905Z,100.00
2022-09-12T04:49:41.417Z,100.00
2022-09-12T04:52:09.023Z,100.00
2022-09-12T04:54:36.581Z,100.00
2022-09-12T04:57:04.467Z,100.00
2022-09-12T04:59:33.352Z,100.00
2022-09-12T05:02:01.010Z,100.00
2022-09-12T05:04:31.543Z,100.00
2022-09-12T05:06:59.902Z,100.00
2022-09-12T05:09:27.731Z,100.00
2022-09-12T05:12:04.685Z,100.00
2022-09-12T05:14:34.878Z,100.00
2022-09-12T05:17:02.913Z,100.00
2022-09-12T05:19:31.270Z,100.00
2022-09-12T05:21:58.945Z,100.00
2022-09-12T05:24:26.799Z,100.00
2022-09-12T05:26:54.401Z,100.00
2022-09-12T05:29:21.920Z,100.00
2022-09-12T05:31:52.157Z,100.00
2022-09-12T05:34:20.110Z,100.00
2022-09-12T05:36:47.703Z,100.00
2022-09-12T05:39:15.534Z,100.00
2022-09-12T05:41:43.241Z,100.00
2022-09-12T05:44:13.989Z,100.00
2022-09-12T05:46:43.086Z,100.00
2022-09-12T05:49:13.608Z,100.00
2022-09-12T05:51:42.743Z,100.00
2022-09-12T05:54:12.244Z,100.00
2022-09-12T05:56:40.842Z,100.00
2022-09-12T05:59:11.967Z,100.00
2022-09-12T06:01:39.954Z,100.00
2022-09-12T06:04:08.043Z,100.00
2022-09-12T06:06:39.239Z,100.00
2022-09-12T06:09:07.279Z,100.00
2022-09-12T06:11:37.165Z,100.00
2022-09-12T06:14:05.369Z,100.00
2022-09-12T06:16:34.465Z,100.00
2022-09-12T06:19:03.280Z,100.00
2022-09-12T06:21:31.901Z,100.00
2022-09-12T06:24:01.352Z,100.00
2022-09-12T06:26:29.974Z,100.00
2022-09-12T06:28:59.595Z,100.00
2022-09-12T06:31:29.085Z,100.00
2022-09-12T06:33:58.060Z,100.00
2022-09-12T06:36:27.265Z,100.00
2022-09-12T06:38:56.109Z,100.00
2022-09-12T06:41:25.968Z,100.00
2022-09-12T06:43:54.208Z,100.00
2022-09-12T06:46:22.425Z,100.00
2022-09-12T06:48:50.502Z,100.00
2022-09-12T06:51:20.011Z,100.00
2022-09-12T06:53:48.415Z,100.00
2022-09-12T06:56:17.419Z,100.00
2022-09-12T06:58:47.012Z,100.00
2022-09-12T07:01:16.543Z,100.00
2022-09-12T07:03:47.992Z,100.00
2022-09-12T07:06:17.370Z,100.00
2022-09-12T07:08:45.843Z,100.00
2022-09-12T07:11:15.316Z,100.00
2022-09-12T07:13:44.763Z,100.00
2022-09-12T07:16:19.182Z,100.00
2022-09-12T07:18:51.436Z,100.00
2022-09-12T07:21:19.149Z,100.00
2022-09-12T07:23:47.365Z,100.00
2022-09-12T07:26:15.870Z,100.00
2022-09-12T07:28:43.965Z,100.00
2022-09-12T07:31:15.438Z,100.00
2022-09-12T07:33:43.562Z,100.00
2022-09-12T07:36:13.858Z,100.00
2022-09-12T07:38:41.955Z,100.00
2022-09-12T07:41:13.601Z,100.00
2022-09-12T07:43:41.732Z,100.00
2022-09-12T07:46:09.624Z,100.00
2022-09-12T07:48:39.085Z,100.00
2022-09-12T07:51:08.558Z,100.00
2022-09-12T07:53:37.482Z,100.00
2022-09-12T07:56:05.472Z,100.00
2022-09-12T07:58:34.486Z,100.00
2022-09-12T08:01:05.898Z,100.00
2022-09-12T08:03:33.526Z,100.00
2022-09-12T08:06:07.150Z,100.00
2022-09-12T08:08:35.212Z,100.00
2022-09-12T08:11:05.938Z,100.00
2022-09-12T08:13:34.577Z,100.00
2022-09-12T08:16:03.845Z,100.00
2022-09-12T08:18:32.616Z,99.30
2022-09-12T08:21:00.610Z,100.00
2022-09-12T08:23:30.162Z,100.00
2022-09-12T08:25:58.313Z,99.07
2022-09-12T08:28:26.365Z,99.13
2022-09-12T08:30:54.375Z,97.48
2022-09-12T08:33:22.119Z,98.68
2022-09-12T08:35:49.690Z,99.59
2022-09-12T08:38:17.305Z,99.31
2022-09-12T08:40:53.503Z,97.40
2022-09-12T08:43:31.516Z,97.77
2022-09-12T08:46:03.958Z,96.78
2022-09-12T08:48:31.691Z,96.15
2022-09-12T08:50:59.658Z,96.17
2022-09-12T08:53:29.201Z,96.29
2022-09-12T08:56:00.199Z,94.28
2022-09-12T08:58:29.728Z,94.07
2022-09-12T09:01:02.835Z,92.66
2022-09-12T09:03:54.186Z,91.98
2022-09-12T09:06:35.288Z,92.02
2022-09-12T09:09:07.423Z,89.99
2022-09-12T09:11:48.224Z,89.91
2022-09-12T09:14:42.921Z,92.32
2022-09-12T09:17:11.937Z,90.67
2022-09-12T09:19:42.431Z,90.18
2022-09-12T09:22:15.465Z,89.49
2022-09-12T09:24:47.198Z,89.36
2022-09-12T09:27:40.032Z,89.39
2022-09-12T09:30:14.142Z,88.18
2022-09-12T09:32:42.539Z,87.69
2022-09-12T09:35:16.985Z,86.72
2022-09-12T09:37:46.068Z,85.87
2022-09-12T09:40:19.118Z,85.63
2022-09-12T09:42:54.919Z,84.62
2022-09-12T09:45:24.917Z,84.12
2022-09-12T09:47:54.381Z,82.74
2022-09-12T09:50:22.144Z,84.03
2022-09-12T09:52:51.323Z,84.21
2022-09-12T09:55:22.227Z,83.25
2022-09-12T09:57:52.377Z,82.91
2022-09-12T10:00:25.803Z,82.29
2022-09-12T10:03:02.417Z,78.99
2022-09-12T10:05:31.198Z,81.65
2022-09-12T10:07:58.904Z,81.49
2022-09-12T10:10:26.512Z,80.58
2022-09-12T10:13:08.345Z,78.97
2022-09-12T10:15:36.507Z,78.05
2022-09-12T10:18:05.755Z,77.16
2022-09-12T10:20:35.855Z,76.08
2022-09-12T10:23:29.437Z,76.34
2022-09-12T10:26:00.758Z,76.53
2022-09-12T10:28:34.254Z,74.13
2022-09-12T10:31:02.637Z,74.07
2022-09-12T10:33:31.550Z,73.66
2022-09-12T10:35:59.262Z,74.07
2022-09-12T10:38:29.117Z,73.82
2022-09-12T10:40:59.155Z,73.53
2022-09-12T10:43:28.973Z,73.88
2022-09-12T10:46:00.523Z,71.26
2022-09-12T10:48:31.634Z,71.66
2022-09-12T10:51:02.211Z,70.12
2022-09-12T10:53:34.543Z,70.88
2022-09-12T10:56:12.183Z,70.14
2022-09-12T10:59:11.839Z,69.15
2022-09-12T11:01:44.130Z,68.23
2022-09-12T11:04:25.934Z,68.89
2022-09-12T11:07:03.517Z,68.00
2022-09-12T11:09:40.024Z,68.33
2022-09-12T11:12:15.568Z,68.01
2022-09-12T11:14:59.364Z,69.03
2022-09-12T11:17:37.661Z,69.87
2022-09-12T11:20:26.917Z,69.53
2022-09-12T11:23:08.948Z,68.79
2022-09-12T11:25:41.542Z,68.89
2022-09-12T11:28:30.053Z,67.67
2022-09-12T11:31:19.251Z,68.94
2022-09-12T11:33:54.941Z,69.43
2022-09-12T11:36:29.571Z,69.08
2022-09-12T11:39:04.881Z,67.43
2022-09-12T11:41:34.466Z,67.02
2022-09-12T11:44:05.913Z,67.57
2022-09-12T11:46:37.169Z,67.03
2022-09-12T11:49:25.729Z,66.64
2022-09-12T11:51:56.416Z,65.22
2022-09-12T11:54:27.525Z,66.22
2022-09-12T11:57:03.031Z,65.59
2022-09-12T11:59:35.067Z,65.71
2022-09-12T12:02:03.048Z,65.95
2022-09-12T12:04:37.619Z,64.72
2022-09-12T12:07:07.609Z,64.46
2022-09-12T12:09:35.350Z,64.91
2022-09-12T12:12:06.742Z,64.58
2022-09-12T12:14:40.176Z,64.87
2022-09-12T12:17:15.525Z,64.49
2022-09-12T12:19:44.749Z,63.35
2022-09-12T12:22:19.653Z,63.65
2022-09-12T12:25:05.771Z,61.44
2022-09-12T12:27:55.021Z,62.68
2022-09-12T12:31:05.365Z,62.33
2022-09-12T12:34:15.979Z,62.87
2022-09-12T12:36:44.968Z,62.34
2022-09-12T12:40:05.531Z,62.81
2022-09-12T12:43:07.615Z,63.17
2022-09-12T12:46:06.802Z,62.47
2022-09-12T12:48:59.884Z,61.79
2022-09-12T12:51:31.791Z,62.10
2022-09-12T12:54:01.481Z,62.30
2022-09-12T12:56:40.403Z,60.73
2022-09-12T12:59:17.975Z,61.20
2022-09-12T13:01:55.009Z,60.63
2022-09-12T13:04:24.244Z,60.51
2022-09-12T13:06:58.834Z,61.73
2022-09-12T13:09:31.148Z,61.80
2022-09-12T13:12:04.264Z,60.09
2022-09-12T13:14:49.250Z,60.03
2022-09-12T13:17:21.511Z,60.42
2022-09-12T13:19:49.775Z,62.01
2022-09-12T13:22:17.884Z,59.94
2022-09-12T13:24:52.121Z,59.07
2022-09-12T13:27:21.690Z,58.53
2022-09-12T13:29:49.703Z,58.62
2022-09-12T13:32:17.822Z,59.81
2022-09-12T13:34:56.735Z,57.76
2022-09-12T13:37:32.941Z,58.72
2022-09-12T13:40:13.703Z,61.28
2022-09-12T13:42:42.469Z,59.99
2022-09-12T13:45:15.948Z,58.93
2022-09-12T13:47:44.584Z,58.41
2022-09-12T13:50:18.266Z,58.15
2022-09-12T13:52:49.909Z,57.38
2022-09-12T13:55:29.119Z,57.66
2022-09-12T13:58:02.071Z,55.77
2022-09-12T14:00:32.084Z,57.19
2022-09-12T14:03:17.537Z,56.79
2022-09-12T14:05:47.075Z,56.44
2022-09-12T14:08:15.388Z,55.83
2022-09-12T14:10:47.784Z,56.35
2022-09-12T14:13:20.101Z,55.36
2022-09-12T14:15:50.288Z,55.10
2022-09-12T14:18:26.101Z,55.23
2022-09-12T14:20:57.412Z,54.07
2022-09-12T14:23:29.576Z,54.93
2022-09-12T14:25:59.929Z,55.53
2022-09-12T14:28:29.631Z,56.30
2022-09-12T14:31:06.375Z,55.84
2022-09-12T14:33:35.678Z,55.85
2022-09-12T14:36:12.118Z,55.98
2022-09-12T14:38:42.734Z,56.34
2022-09-12T14:41:13.392Z,55.75
2022-09-12T14:43:43.782Z,55.55
2022-09-12T14:46:17.884Z,54.74
2022-09-12T14:48:48.573Z,55.10
2022-09-12T14:51:20.980Z,56.06
2022-09-12T14:53:49.721Z,55.89
2022-09-12T14:56:22.238Z,54.68
2022-09-12T14:58:50.314Z,55.99
2022-09-12T15:01:27.774Z,55.78
2022-09-12T15:03:57.429Z,55.32
2022-09-12T15:06:29.296Z,54.27
2022-09-12T15:08:59.112Z,54.03
2022-09-12T15:11:28.082Z,53.90
2022-09-12T15:13:55.643Z,54.95
2022-09-12T15:16:23.362Z,54.95
2022-09-12T15:18:51.025Z,54.21
2022-09-12T15:21:20.207Z,54.23
2022-09-12T15:23:48.784Z,54.11
2022-09-12T15:26:18.086Z,54.53
2022-09-12T15:28:47.199Z,54.51
2022-09-12T15:31:23.220Z,54.67
2022-09-12T15:33:50.873Z,53.69
2022-09-12T15:36:20.640Z,53.75
2022-09-12T15:38:49.083Z,53.58
2022-09-12T15:41:18.851Z,53.66
2022-09-12T15:43:48.513Z,53.80
2022-09-12T15:46:17.685Z,53.96
2022-09-12T15:48:45.245Z,54.07
2022-09-12T15:51:15.388Z,53.56
2022-09-12T15:53:43.709Z,53.32
2022-09-12T15:56:11.259Z,53.40
2022-09-12T15:58:54.663Z,53.75
2022-09-12T16:01:27.140Z,52.99
2022-09-12T16:03:54.838Z,52.84
2022-09-12T16:06:23.392Z,53.47
2022-09-12T16:08:51.014Z,54.80
2022-09-12T16:11:21.585Z,53.78
2022-09-12T16:13:49.599Z,53.55
2022-09-12T16:16:17.228Z,53.84
2022-09-12T16:18:46.364Z,54.11
2022-09-12T16:21:15.495Z,54.11
2022-09-12T16:23:43.760Z,54.25
2022-09-12T16:26:11.434Z,54.18
2022-09-12T16:28:39.093Z,53.99
2022-09-12T16:31:08.450Z,54.46
2022-09-12T16:33:36.057Z,55.05
2022-09-12T16:36:06.774Z,55.04
2022-09-12T16:38:35.813Z,55.60
2022-09-12T16:41:03.865Z,55.45
2022-09-12T16:43:32.041Z,55.38
2022-09-12T16:46:03.915Z,55.41
2022-09-12T16:48:31.527Z,56.00
2022-09-12T16:51:01.389Z,56.12
2022-09-12T16:53:32.335Z,56.78
2022-09-12T16:56:00.035Z,57.29
2022-09-12T16:58:28.071Z,57.29
2022-09-12T17:01:01.396Z,57.37
2022-09-12T17:03:28.966Z,57.84
2022-09-12T17:06:01.125Z,57.96
2022-09-12T17:08:28.836Z,58.10
2022-09-12T17:11:02.214Z,58.24
2022-09-12T17:13:52.912Z,59.07
2022-09-12T17:16:18.478Z,59.23
2022-09-12T17:18:46.746Z,59.27
2022-09-12T17:21:14.959Z,59.78
2022-09-12T17:23:42.806Z,60.78
2022-09-12T17:26:12.367Z,60.70
2022-09-12T17:28:41.010Z,61.38
2022-09-12T17:31:10.148Z,61.44
2022-09-12T17:33:39.045Z,61.63
2022-09-12T17:36:09.222Z,61.62
2022-09-12T17:38:38.494Z,62.04
2022-09-12T17:41:07.111Z,63.40
2022-09-12T17:43:37.799Z,64.69
2022-09-12T17:46:05.926Z,63.79
2022-09-12T17:48:33.696Z,63.69
2022-09-12T17:51:08.579Z,64.70
2022-09-12T17:53:36.172Z,65.07
2022-09-12T17:56:04.605Z,65.82
2022-09-12T17:58:32.323Z,66.06
2022-09-12T18:01:23.513Z,65.45
2022-09-12T18:03:51.967Z,65.71
2022-09-12T18:06:19.540Z,65.79
2022-09-12T18:08:47.083Z,65.72
2022-09-12T18:11:14.779Z,65.71
2022-09-12T18:13:42.495Z,65.32
2022-09-12T18:16:12.833Z,65.42
2022-09-12T18:18:40.771Z,65.09
2022-09-12T18:21:09.407Z,65.07
2022-09-12T18:23:37.033Z,65.38
2022-09-12T18:26:06.453Z,65.38
2022-09-12T18:28:34.504Z,65.08
2022-09-12T18:31:02.092Z,65.21
2022-09-12T18:33:31.022Z,65.40
2022-09-12T18:35:58.623Z,65.38
2022-09-12T18:38:26.163Z,65.26
2022-09-12T18:41:02.549Z,65.85
2022-09-12T18:43:30.107Z,65.95
2022-09-12T18:45:57.903Z,65.52
2022-09-12T18:48:25.501Z,66.18
2022-09-12T18:50:54.414Z,66.57
2022-09-12T18:53:22.046Z,66.66
2022-09-12T18:55:52.340Z,67.03
2022-09-12T18:58:19.889Z,67.78
2022-09-12T19:00:49.137Z,68.14
2022-09-12T19:03:16.695Z,67.85
2022-09-12T19:05:44.271Z,68.10
2022-09-12T19:08:13.242Z,68.76
2022-09-12T19:10:40.833Z,68.92
2022-09-12T19:13:08.407Z,68.84
2022-09-12T19:15:40.628Z,69.16
2022-09-12T19:18:09.457Z,68.90
2022-09-12T19:20:38.231Z,68.59
2022-09-12T19:23:05.830Z,68.59
2022-09-12T19:25:34.721Z,68.88
2022-09-12T19:28:02.539Z,68.42
2022-09-12T19:30:30.109Z,68.84
2022-09-12T19:32:58.205Z,68.60
2022-09-12T19:35:25.948Z,69.00
2022-09-12T19:37:53.735Z,69.14
2022-09-12T19:40:21.385Z,68.80
2022-09-12T19:42:50.539Z,68.78
2022-09-12T19:45:18.099Z,68.59
2022-09-12T19:47:45.736Z,68.35
2022-09-12T19:50:13.383Z,68.11
2022-09-12T19:52:41.034Z,67.97
2022-09-12T19:55:10.058Z,68.39
2022-09-12T19:57:37.716Z,69.03
2022-09-12T20:00:07.818Z,68.18
2022-09-12T20:02:35.409Z,68.81
2022-09-12T20:05:03.105Z,69.24
2022-09-12T20:07:30.736Z,69.21
2022-09-12T20:09:58.517Z,69.04
2022-09-12T20:12:26.047Z,69.52
2022-09-12T20:14:53.641Z,69.49
2022-09-12T20:17:22.629Z,69.74
2022-09-12T20:19:50.291Z,70.15
2022-09-12T20:22:18.927Z,70.19
2022-09-12T20:24:46.629Z,70.44
2022-09-12T20:27:14.422Z,69.84
2022-09-12T20:29:42.257Z,69.86
2022-09-12T20:32:09.963Z,70.26
2022-09-12T20:34:38.888Z,70.27
2022-09-12T20:37:06.691Z,70.00
2022-09-12T20:39:34.370Z,70.12
2022-09-12T20:42:02.010Z,70.36
2022-09-12T20:44:30.250Z,70.35
2022-09-12T20:46:58.411Z,71.05
2022-09-12T20:49:26.040Z,70.80
2022-09-12T20:51:55.140Z,70.72
2022-09-12T20:54:22.844Z,70.43
2022-09-12T20:56:50.424Z,70.82
2022-09-12T20:59:18.007Z,71.80
2022-09-12T21:01:45.754Z,72.98
2022-09-12T21:04:15.253Z,73.75
2022-09-12T21:06:43.021Z,73.61
2022-09-12T21:09:12.228Z,73.60
2022-09-12T21:11:39.787Z,74.57
2022-09-12T21:14:07.536Z,74.11
2022-09-12T21:16:38.481Z,73.33
2022-09-12T21:19:07.316Z,72.62
2022-09-12T21:21:35.019Z,72.05
2022-09-12T21:24:03.718Z,71.66
2022-09-12T21:26:33.102Z,71.63
2022-09-12T21:29:00.789Z,71.79
2022-09-12T21:31:28.457Z,72.78
2022-09-12T21:33:56.290Z,72.72
2022-09-12T21:36:25.397Z,72.46
2022-09-12T21:38:53.013Z,72.26
2022-09-12T21:41:20.570Z,72.89
2022-09-12T21:43:49.763Z,73.45
2022-09-12T21:46:17.542Z,73.30
2022-09-12T21:48:45.352Z,73.47
2022-09-12T21:51:13.094Z,73.80
2022-09-12T21:53:41.156Z,74.03
2022-09-12T21:56:09.892Z,74.62
2022-09-12T21:58:37.654Z,74.34
2022-09-12T22:01:08.752Z,74.45
2022-09-12T22:03:36.548Z,74.12
2022-09-12T22:06:06.016Z,74.19
2022-09-12T22:08:34.843Z,74.55
2022-09-12T22:11:04.449Z,74.54
2022-09-12T22:13:32.534Z,74.45
2022-09-12T22:16:02.831Z,74.47
2022-09-12T22:18:33.189Z,75.00
2022-09-12T22:21:02.679Z,75.55
2022-09-12T22:23:48.396Z,76.87
2022-09-12T22:26:16.612Z,77.66
2022-09-12T22:28:44.609Z,78.28
2022-09-12T22:31:12.966Z,79.10
2022-09-12T22:33:42.021Z,79.92
2022-09-12T22:36:10.710Z,79.92
2022-09-12T22:38:38.527Z,79.80
2022-09-12T22:41:06.662Z,80.14
2022-09-12T22:43:35.205Z,80.42
2022-09-12T22:46:03.020Z,80.51
2022-09-12T22:48:30.581Z,80.60
2022-09-12T22:50:59.491Z,81.27
2022-09-12T22:53:27.243Z,80.17
2022-09-12T22:55:54.964Z,80.38
2022-09-12T22:58:22.649Z,81.42
2022-09-12T23:00:51.609Z,81.50
2022-09-12T23:03:20.053Z,81.91
2022-09-12T23:05:48.460Z,81.77
2022-09-12T23:08:19.433Z,81.44
2022-09-12T23:10:46.994Z,81.05
2022-09-12T23:13:14.984Z,80.20
2022-09-12T23:15:42.535Z,80.35
2022-09-12T23:18:10.122Z,80.04
2022-09-12T23:20:37.870Z,79.69
2022-09-12T23:23:05.483Z,79.97
2022-09-12T23:25:34.878Z,80.23
2022-09-12T23:28:02.815Z,81.25
2022-09-12T23:30:32.005Z,81.86
2022-09-12T23:33:00.391Z,83.03
2022-09-12T23:35:27.922Z,83.65
2022-09-12T23:37:55.652Z,83.91
2022-09-12T23:40:23.264Z,84.90
2022-09-12T23:42:52.233Z,85.75
2022-09-12T23:45:19.782Z,86.16
2022-09-12T23:47:47.329Z,86.40
2022-09-12T23:50:15.076Z,87.00
2022-09-12T23:52:42.596Z,87.94
2022-09-12T23:55:10.562Z,88.07
2022-09-12T23:57:39.289Z,88.22
